createdAt,value
2022-09-24T00:01:40.720Z,13.40
2022-09-24T00:04:12.401Z,13.40
2022-09-24T00:06:48.435Z,13.50
2022-09-24T00:09:22.071Z,13.40
2022-09-24T00:11:55.134Z,13.40
2022-09-24T00:14:22.103Z,13.40
2022-09-24T00:16:49.689Z,13.50
2022-09-24T00:19:16.659Z,13.40
2022-09-24T00:21:44.004Z,13.40
2022-09-24T00:24:36.618Z,13.40
2022-09-24T00:27:06.370Z,13.40
2022-09-24T00:29:35.577Z,13.40
2022-09-24T00:32:04.310Z,13.40
2022-09-24T00:34:31.479Z,13.40
2022-09-24T00:36:59.125Z,13.40
2022-09-24T00:39:26.153Z,13.40
2022-09-24T00:41:53.062Z,13.40
2022-09-24T00:44:41.204Z,13.40
2022-09-24T00:47:17.353Z,13.40
2022-09-24T00:49:48.073Z,13.40
2022-09-24T00:52:16.121Z,13.40
2022-09-24T00:54:44.239Z,13.40
2022-09-24T00:57:13.330Z,13.40
2022-09-24T00:59:42.593Z,13.40
2022-09-24T01:02:09.751Z,13.40
2022-09-24T01:04:36.906Z,13.40
2022-09-24T01:07:03.923Z,13.40
2022-09-24T01:09:31.090Z,13.30
2022-09-24T01:12:36.058Z,13.40
2022-09-24T01:15:24.799Z,13.30
2022-09-24T01:18:07.336Z,13.40
2022-09-24T01:20:51.611Z,13.30
2022-09-24T01:23:35.649Z,13.40
2022-09-24T01:26:38.498Z,13.30
2022-09-24T01:29:32.198Z,13.30
2022-09-24T01:32:13.914Z,13.30
2022-09-24T01:35:02.631Z,13.30
2022-09-24T01:37:34.302Z,13.30
2022-09-24T01:40:03.973Z,13.30
2022-09-24T01:42:32.128Z,13.30
2022-09-24T01:45:01.814Z,13.30
2022-09-24T01:47:40.037Z,13.30
2022-09-24T01:50:11.331Z,13.30
2022-09-24T01:53:06.414Z,13.30
2022-09-24T01:55:44.808Z,13.30
2022-09-24T01:58:28.118Z,13.40
2022-09-24T02:01:06.053Z,13.30
2022-09-24T02:03:40.090Z,13.30
2022-09-24T02:06:20.996Z,13.30
2022-09-24T02:08:49.086Z,13.30
2022-09-24T02:11:24.290Z,13.30
2022-09-24T02:14:07.937Z,13.30
2022-09-24T02:16:41.851Z,13.30
2022-09-24T02:19:14.645Z,13.30
2022-09-24T02:21:44.873Z,13.30
2022-09-24T02:24:19.092Z,13.30
2022-09-24T02:26:46.710Z,13.30
2022-09-24T02:29:14.068Z,13.30
2022-09-24T02:31:49.667Z,13.30
2022-09-24T02:34:23.445Z,13.30
2022-09-24T02:36:59.557Z,13.30
2022-09-24T02:39:27.123Z,13.30
2022-09-24T02:41:54.978Z,13.30
2022-09-24T02:44:22.443Z,13.30
2022-09-24T02:46:50.841Z,13.30
2022-09-24T02:49:18.676Z,13.30
2022-09-24T02:51:46.273Z,13.30
2022-09-24T02:54:13.386Z,13.30
2022-09-24T02:56:40.905Z,13.30
2022-09-24T02:59:08.686Z,13.30
2022-09-24T03:01:36.453Z,13.30
2022-09-24T03:04:04.798Z,13.30
2022-09-24T03:06:32.416Z,13.30
2022-09-24T03:09:00.947Z,13.30
2022-09-24T03:11:28.980Z,13.30
2022-09-24T03:13:55.920Z,13.30
2022-09-24T03:16:23.143Z,13.30
2022-09-24T03:18:50.199Z,13.30
2022-09-24T03:21:20.966Z,13.30
2022-09-24T03:23:48.126Z,13.30
2022-09-24T03:26:15.251Z,13.30
2022-09-24T03:28:42.190Z,13.30
2022-09-24T03:31:09.680Z,13.30
2022-09-24T03:33:49.052Z,13.30
2022-09-24T03:36:25.907Z,13.30
2022-09-24T03:38:56.522Z,13.30
2022-09-24T03:41:27.329Z,13.30
2022-09-24T03:43:55.316Z,13.20
2022-09-24T03:46:24.401Z,13.20
2022-09-24T03:48:52.147Z,13.30
2022-09-24T03:51:20.222Z,13.30
2022-09-24T03:53:48.630Z,13.20
2022-09-24T03:56:16.246Z,13.30
2022-09-24T03:58:48.050Z,13.20
2022-09-24T04:01:20.768Z,13.20
2022-09-24T04:03:49.495Z,13.20
2022-09-24T04:06:20.716Z,13.30
2022-09-24T04:08:50.555Z,13.30
2022-09-24T04:11:17.474Z,13.30
2022-09-24T04:13:44.672Z,13.30
2022-09-24T04:16:11.579Z,13.30
2022-09-24T04:18:39.709Z,13.30
2022-09-24T04:21:07.139Z,13.30
2022-09-24T04:23:34.470Z,13.30
2022-09-24T04:26:02.389Z,13.40
2022-09-24T04:28:30.843Z,13.30
2022-09-24T04:30:58.734Z,13.30
2022-09-24T04:33:26.335Z,13.30
2022-09-24T04:35:53.337Z,13.30
2022-09-24T04:38:21.397Z,13.30
2022-09-24T04:40:49.289Z,13.30
2022-09-24T04:43:18.356Z,13.30
2022-09-24T04:45:46.483Z,13.30
2022-09-24T04:48:14.183Z,13.30
2022-09-24T04:50:45.730Z,13.30
2022-09-24T04:53:13.442Z,13.30
2022-09-24T04:55:41.849Z,13.30
2022-09-24T04:58:09.927Z,13.30
2022-09-24T05:00:37.734Z,13.30
2022-09-24T05:03:05.173Z,13.30
2022-09-24T05:05:33.773Z,13.30
2022-09-24T05:08:01.580Z,13.30
2022-09-24T05:10:30.265Z,13.30
2022-09-24T05:12:57.218Z,13.30
2022-09-24T05:15:24.182Z,13.30
2022-09-24T05:17:51.189Z,13.30
2022-09-24T05:20:18.183Z,13.30
2022-09-24T05:22:47.394Z,13.30
2022-09-24T05:25:16.812Z,13.30
2022-09-24T05:27:52.544Z,13.30
2022-09-24T05:30:21.952Z,13.30
2022-09-24T05:32:55.103Z,13.30
2022-09-24T05:35:24.042Z,13.30
2022-09-24T05:37:53.614Z,13.30
2022-09-24T05:40:39.896Z,13.30
2022-09-24T05:43:07.136Z,13.30
2022-09-24T05:45:34.097Z,13.20
2022-09-24T05:48:01.290Z,13.20
2022-09-24T05:50:28.597Z,13.30
2022-09-24T05:52:55.724Z,13.20
2022-09-24T05:55:22.673Z,13.20
2022-09-24T05:57:49.677Z,13.20
2022-09-24T06:00:16.724Z,13.20
2022-09-24T06:02:43.889Z,13.30
2022-09-24T06:05:11.847Z,13.30
2022-09-24T06:07:39.502Z,13.30
2022-09-24T06:10:10.401Z,13.30
2022-09-24T06:12:37.335Z,13.30
2022-09-24T06:15:05.146Z,13.30
2022-09-24T06:17:32.564Z,13.30
2022-09-24T06:19:59.576Z,13.30
2022-09-24T06:22:29.005Z,13.30
2022-09-24T06:24:56.393Z,13.30
2022-09-24T06:27:23.364Z,13.30
2022-09-24T06:29:50.427Z,13.30
2022-09-24T06:32:18.220Z,13.30
2022-09-24T06:34:45.442Z,13.30
2022-09-24T06:37:12.447Z,13.20
2022-09-24T06:39:39.427Z,13.30
2022-09-24T06:42:07.173Z,13.20
2022-09-24T06:44:34.961Z,13.30
2022-09-24T06:47:02.312Z,13.30
2022-09-24T06:49:33.790Z,13.30
2022-09-24T06:52:01.539Z,13.30
2022-09-24T06:54:28.509Z,13.30
2022-09-24T06:56:55.426Z,13.30
2022-09-24T06:59:22.570Z,13.40
2022-09-24T07:01:49.560Z,13.40
2022-09-24T07:04:16.625Z,13.50
2022-09-24T07:07:01.771Z,13.50
2022-09-24T07:09:28.738Z,13.50
2022-09-24T07:11:57.012Z,13.50
2022-09-24T07:14:24.016Z,13.50
2022-09-24T07:16:52.183Z,13.60
2022-09-24T07:19:19.118Z,13.60
2022-09-24T07:21:46.117Z,13.60
2022-09-24T07:24:13.001Z,13.70
2022-09-24T07:26:39.901Z,13.80
2022-09-24T07:29:06.918Z,13.80
2022-09-24T07:31:34.181Z,13.90
2022-09-24T07:34:01.257Z,14.00
2022-09-24T07:36:31.022Z,14.20
2022-09-24T07:38:58.499Z,14.40
2022-09-24T07:41:25.935Z,14.60
2022-09-24T07:43:55.358Z,14.80
2022-09-24T07:46:22.448Z,15.00
2022-09-24T07:48:49.487Z,15.20
2022-09-24T07:51:16.927Z,15.60
2022-09-24T07:53:43.928Z,15.90
2022-09-24T07:56:11.098Z,15.80
2022-09-24T07:58:40.449Z,15.60
2022-09-24T08:01:07.554Z,15.40
2022-09-24T08:03:34.826Z,15.20
2022-09-24T08:06:01.916Z,15.10
2022-09-24T08:08:28.908Z,14.90
2022-09-24T08:10:55.879Z,14.80
2022-09-24T08:13:27.512Z,14.80
2022-09-24T08:16:02.413Z,14.80
2022-09-24T08:18:31.929Z,14.70
2022-09-24T08:21:11.923Z,14.70
2022-09-24T08:23:40.790Z,14.70
2022-09-24T08:26:09.080Z,14.70
2022-09-24T08:28:36.358Z,14.70
2022-09-24T08:31:09.926Z,14.70
2022-09-24T08:33:38.330Z,14.80
2022-09-24T08:36:09.102Z,15.10
2022-09-24T08:38:36.412Z,15.40
2022-09-24T08:41:06.586Z,15.40
2022-09-24T08:43:58.204Z,15.30
2022-09-24T08:46:58.669Z,15.20
2022-09-24T08:49:33.393Z,15.20
2022-09-24T08:52:29.732Z,15.10
2022-09-24T08:55:04.794Z,15.10
2022-09-24T08:57:50.017Z,15.00
2022-09-24T09:00:17.172Z,14.90
2022-09-24T09:03:15.683Z,14.90
2022-09-24T09:06:36.623Z,14.80
2022-09-24T09:09:21.851Z,14.70
2022-09-24T09:12:04.789Z,14.60
2022-09-24T09:15:27.377Z,14.60
2022-09-24T09:18:06.474Z,14.60
2022-09-24T09:20:41.551Z,14.50
2022-09-24T09:23:22.561Z,14.40
2022-09-24T09:25:57.458Z,14.40
2022-09-24T09:28:27.430Z,14.40
2022-09-24T09:31:13.043Z,14.40
2022-09-24T09:33:46.461Z,14.30
2022-09-24T09:36:16.302Z,14.30
2022-09-24T09:39:05.781Z,14.30
2022-09-24T09:41:49.332Z,14.30
2022-09-24T09:44:25.720Z,14.30
2022-09-24T09:47:04.076Z,14.30
2022-09-24T09:49:38.609Z,14.30
2022-09-24T09:52:15.388Z,14.20
2022-09-24T09:54:43.453Z,14.20
2022-09-24T09:57:20.848Z,14.20
2022-09-24T09:59:50.625Z,14.20
2022-09-24T10:02:25.762Z,14.20
2022-09-24T10:04:58.905Z,14.20
2022-09-24T10:07:26.138Z,14.30
2022-09-24T10:10:25.259Z,14.40
2022-09-24T10:13:08.143Z,14.40
2022-09-24T10:15:49.100Z,14.50
2022-09-24T10:18:16.892Z,14.60
2022-09-24T10:20:48.318Z,14.70
2022-09-24T10:23:34.397Z,14.80
2022-09-24T10:26:03.338Z,14.90
2022-09-24T10:28:50.058Z,15.00
2022-09-24T10:31:26.730Z,15.10
2022-09-24T10:33:57.893Z,15.30
2022-09-24T10:36:35.146Z,15.40
2022-09-24T10:39:14.855Z,15.50
2022-09-24T10:41:49.115Z,15.60
2022-09-24T10:44:17.192Z,15.60
2022-09-24T10:47:10.502Z,15.50
2022-09-24T10:50:20.543Z,15.50
2022-09-24T10:52:56.994Z,15.50
2022-09-24T10:56:02.105Z,15.50
2022-09-24T10:58:47.170Z,15.50
2022-09-24T11:01:26.330Z,15.50
2022-09-24T11:04:19.153Z,15.50
2022-09-24T11:07:28.220Z,15.40
2022-09-24T11:10:13.515Z,15.40
2022-09-24T11:13:12.666Z,15.40
2022-09-24T11:16:06.599Z,15.50
2022-09-24T11:18:50.238Z,15.40
2022-09-24T11:22:08.171Z,15.30
2022-09-24T11:25:02.522Z,15.30
2022-09-24T11:28:09.890Z,15.40
2022-09-24T11:31:15.605Z,15.60
2022-09-24T11:34:24.079Z,15.60
2022-09-24T11:37:21.099Z,15.50
2022-09-24T11:40:10.791Z,15.40
2022-09-24T11:43:21.483Z,15.40
2022-09-24T11:46:19.232Z,15.30
2022-09-24T11:48:53.749Z,15.50
2022-09-24T11:51:41.274Z,15.70
2022-09-24T11:54:43.311Z,16.00
2022-09-24T11:57:24.207Z,16.10
2022-09-24T12:00:07.581Z,16.20
2022-09-24T12:02:48.010Z,16.30
2022-09-24T12:05:40.742Z,16.10
2022-09-24T12:08:13.722Z,16.00
2022-09-24T12:11:16.701Z,15.90
2022-09-24T12:14:06.491Z,15.90
2022-09-24T12:16:38.262Z,15.90
2022-09-24T12:19:27.049Z,15.90
2022-09-24T12:21:58.214Z,16.10
2022-09-24T12:24:41.941Z,16.20
2022-09-24T12:27:17.048Z,16.10
2022-09-24T12:30:10.777Z,16.10
2022-09-24T12:32:57.083Z,16.20
2022-09-24T12:35:55.250Z,16.10
2022-09-24T12:38:46.996Z,16.20
2022-09-24T12:41:35.957Z,16.20
2022-09-24T12:44:12.167Z,16.30
2022-09-24T12:46:48.591Z,16.40
2022-09-24T12:49:24.819Z,16.50
2022-09-24T12:52:40.006Z,16.50
2022-09-24T12:55:30.430Z,16.50
2022-09-24T12:58:26.237Z,16.50
2022-09-24T13:01:30.661Z,16.50
2022-09-24T13:04:05.786Z,16.40
2022-09-24T13:06:38.018Z,16.20
2022-09-24T13:09:37.070Z,16.10
2022-09-24T13:12:21.480Z,16.00
2022-09-24T13:15:28.763Z,15.90
2022-09-24T13:18:08.829Z,15.80
2022-09-24T13:20:38.773Z,15.80
2022-09-24T13:23:20.336Z,15.70
2022-09-24T13:25:58.992Z,15.70
2022-09-24T13:28:52.417Z,15.70
2022-09-24T13:31:22.129Z,15.70
2022-09-24T13:33:55.078Z,15.60
2022-09-24T13:36:57.760Z,15.60
2022-09-24T13:39:59.143Z,15.60
2022-09-24T13:42:39.896Z,15.60
2022-09-24T13:45:23.105Z,15.50
2022-09-24T13:48:34.352Z,15.40
2022-09-24T13:51:04.407Z,15.40
2022-09-24T13:53:49.663Z,15.40
2022-09-24T13:56:19.284Z,15.40
2022-09-24T13:58:48.323Z,15.40
2022-09-24T14:01:30.109Z,15.40
2022-09-24T14:04:06.401Z,15.40
2022-09-24T14:06:40.668Z,15.40
2022-09-24T14:09:32.611Z,15.40
2022-09-24T14:12:22.030Z,15.40
2022-09-24T14:14:58.368Z,15.40
2022-09-24T14:17:26.371Z,15.40
2022-09-24T14:19:57.433Z,15.50
2022-09-24T14:22:37.392Z,15.60
2022-09-24T14:25:10.999Z,15.70
2022-09-24T14:27:47.146Z,15.90
2022-09-24T14:30:37.257Z,16.00
2022-09-24T14:33:13.300Z,16.10
2022-09-24T14:35:45.901Z,16.10
2022-09-24T14:38:36.026Z,16.10
2022-09-24T14:41:29.842Z,16.20
2022-09-24T14:44:18.655Z,16.30
2022-09-24T14:46:57.853Z,16.30
2022-09-24T14:49:32.836Z,16.20
2022-09-24T14:52:01.923Z,16.20
2022-09-24T14:54:42.590Z,16.20
2022-09-24T14:57:25.173Z,16.20
2022-09-24T14:59:52.647Z,16.20
2022-09-24T15:02:37.097Z,16.30
2022-09-24T15:05:08.156Z,16.30
2022-09-24T15:07:36.314Z,16.20
2022-09-24T15:10:06.186Z,16.20
2022-09-24T15:12:38.280Z,16.10
2022-09-24T15:15:16.926Z,16.10
2022-09-24T15:17:47.142Z,16.00
2022-09-24T15:20:14.642Z,16.00
2022-09-24T15:22:42.911Z,16.00
2022-09-24T15:25:10.719Z,16.00
2022-09-24T15:27:39.985Z,16.00
2022-09-24T15:30:12.233Z,16.10
2022-09-24T15:32:39.233Z,16.10
2022-09-24T15:35:09.484Z,16.10
2022-09-24T15:37:39.912Z,16.10
2022-09-24T15:40:16.950Z,16.10
2022-09-24T15:42:43.933Z,16.00
2022-09-24T15:45:21.570Z,16.00
2022-09-24T15:47:50.180Z,16.00
2022-09-24T15:50:18.208Z,16.00
2022-09-24T15:52:56.822Z,16.00
2022-09-24T15:55:24.215Z,15.90
2022-09-24T15:57:51.451Z,15.90
2022-09-24T16:00:21.390Z,15.80
2022-09-24T16:02:55.285Z,15.80
2022-09-24T16:05:23.113Z,15.80
2022-09-24T16:07:50.034Z,15.80
2022-09-24T16:10:17.856Z,15.80
2022-09-24T16:12:44.762Z,15.80
2022-09-24T16:15:16.562Z,15.80
2022-09-24T16:17:44.192Z,15.90
2022-09-24T16:20:11.172Z,15.90
2022-09-24T16:22:38.129Z,15.80
2022-09-24T16:25:05.942Z,15.80
2022-09-24T16:27:33.893Z,15.90
2022-09-24T16:30:01.963Z,15.80
2022-09-24T16:32:29.194Z,15.80
2022-09-24T16:34:57.043Z,15.80
2022-09-24T16:37:25.070Z,15.80
2022-09-24T16:39:52.640Z,15.80
2022-09-24T16:42:19.733Z,15.80
2022-09-24T16:44:46.772Z,15.70
2022-09-24T16:47:17.700Z,15.70
2022-09-24T16:49:44.693Z,15.60
2022-09-24T16:52:11.658Z,15.70
2022-09-24T16:54:38.626Z,15.60
2022-09-24T16:57:06.345Z,15.60
2022-09-24T16:59:33.925Z,15.60
2022-09-24T17:02:01.307Z,15.50
2022-09-24T17:04:28.500Z,15.50
2022-09-24T17:06:58.877Z,15.40
2022-09-24T17:09:44.643Z,15.40
2022-09-24T17:12:11.657Z,15.30
2022-09-24T17:14:38.994Z,15.30
2022-09-24T17:17:07.103Z,15.30
2022-09-24T17:19:34.164Z,15.30
2022-09-24T17:22:01.311Z,15.20
2022-09-24T17:24:28.401Z,15.20
2022-09-24T17:26:56.559Z,15.20
2022-09-24T17:29:30.319Z,15.20
2022-09-24T17:31:58.678Z,15.10
2022-09-24T17:34:25.984Z,15.10
2022-09-24T17:36:52.967Z,15.10
2022-09-24T17:39:19.876Z,15.10
2022-09-24T17:41:46.838Z,15.00
2022-09-24T17:44:14.018Z,15.00
2022-09-24T17:46:41.109Z,14.90
2022-09-24T17:49:08.903Z,14.90
2022-09-24T17:51:37.047Z,14.90
2022-09-24T17:54:14.339Z,14.90
2022-09-24T17:56:41.970Z,14.80
2022-09-24T17:59:12.079Z,14.80
2022-09-24T18:01:43.000Z,14.80
2022-09-24T18:04:14.920Z,14.80
2022-09-24T18:06:45.123Z,14.70
2022-09-24T18:09:13.836Z,14.70
2022-09-24T18:11:47.322Z,14.70
2022-09-24T18:14:21.374Z,14.60
2022-09-24T18:16:52.145Z,14.60
2022-09-24T18:19:19.163Z,14.60
2022-09-24T18:21:48.778Z,14.60
2022-09-24T18:24:16.492Z,14.60
2022-09-24T18:26:43.743Z,14.60
2022-09-24T18:29:16.427Z,14.50
2022-09-24T18:31:44.657Z,14.50
2022-09-24T18:34:15.347Z,14.50
2022-09-24T18:36:44.752Z,14.50
2022-09-24T18:39:15.853Z,14.50
2022-09-24T18:41:44.696Z,14.50
2022-09-24T18:44:11.877Z,14.40
2022-09-24T18:46:40.114Z,14.40
2022-09-24T18:49:07.706Z,14.30
2022-09-24T18:51:37.606Z,14.30
2022-09-24T18:54:12.559Z,14.20
2022-09-24T18:56:39.998Z,14.20
2022-09-24T18:59:12.506Z,14.20
2022-09-24T19:01:40.692Z,14.10
2022-09-24T19:04:14.434Z,14.10
2022-09-24T19:06:44.252Z,14.00
2022-09-24T19:09:13.800Z,14.00
2022-09-24T19:11:42.058Z,14.00
2022-09-24T19:14:13.528Z,13.90
2022-09-24T19:16:40.617Z,13.90
2022-09-24T19:19:07.543Z,13.90
2022-09-24T19:21:34.425Z,13.90
2022-09-24T19:24:01.705Z,13.90
2022-09-24T19:26:32.228Z,13.80
2022-09-24T19:29:00.313Z,13.80
2022-09-24T19:31:32.404Z,13.80
2022-09-24T19:34:03.474Z,13.80
2022-09-24T19:36:36.222Z,13.70
2022-09-24T19:39:05.763Z,13.70
2022-09-24T19:41:32.763Z,13.80
2022-09-24T19:44:04.582Z,13.80
2022-09-24T19:46:34.739Z,13.80
2022-09-24T19:49:01.922Z,13.70
2022-09-24T19:51:31.823Z,13.70
2022-09-24T19:54:06.609Z,13.60
2022-09-24T19:56:34.233Z,13.50
2022-09-24T19:59:02.424Z,13.50
2022-09-24T20:01:31.983Z,13.40
2022-09-24T20:04:03.886Z,13.30
2022-09-24T20:06:33.987Z,13.30
2022-09-24T20:09:01.166Z,13.20
2022-09-24T20:11:29.394Z,13.10
2022-09-24T20:13:56.699Z,13.00
2022-09-24T20:16:27.168Z,12.90
2022-09-24T20:18:57.934Z,12.80
2022-09-24T20:21:27.835Z,12.70
2022-09-24T20:23:57.849Z,12.60
2022-09-24T20:26:44.962Z,12.50
2022-09-24T20:29:14.502Z,12.40
2022-09-24T20:31:51.312Z,12.30
2022-09-24T20:34:20.986Z,12.20
2022-09-24T20:36:48.198Z,12.10
2022-09-24T20:39:15.323Z,12.10
2022-09-24T20:41:42.856Z,12.10
2022-09-24T20:44:09.889Z,12.00
2022-09-24T20:46:37.057Z,12.00
2022-09-24T20:49:04.051Z,11.90
2022-09-24T20:51:33.734Z,11.90
2022-09-24T20:54:01.709Z,11.80
2022-09-24T20:56:30.686Z,11.80
2022-09-24T20:58:58.685Z,11.80
2022-09-24T21:01:25.818Z,11.80
2022-09-24T21:03:53.350Z,11.70
2022-09-24T21:06:24.811Z,11.70
2022-09-24T21:08:52.782Z,11.60
2022-09-24T21:11:26.862Z,11.60
2022-09-24T21:14:02.862Z,11.50
2022-09-24T21:16:34.588Z,11.50
2022-09-24T21:19:05.687Z,11.50
2022-09-24T21:21:38.991Z,11.40
2022-09-24T21:24:09.949Z,11.30
2022-09-24T21:26:38.817Z,11.30
2022-09-24T21:29:12.101Z,11.20
2022-09-24T21:31:40.190Z,11.10
2022-09-24T21:34:08.626Z,11.10
2022-09-24T21:36:43.990Z,11.10
2022-09-24T21:39:23.148Z,11.00
2022-09-24T21:41:51.388Z,11.00
2022-09-24T21:44:19.545Z,11.00
2022-09-24T21:46:47.734Z,11.00
2022-09-24T21:49:17.320Z,11.00
2022-09-24T21:51:45.504Z,11.00
2022-09-24T21:54:17.415Z,11.00
2022-09-24T21:56:45.725Z,11.00
2022-09-24T21:59:31.954Z,11.00
2022-09-24T22:01:59.482Z,11.00
2022-09-24T22:04:27.694Z,11.10
2022-09-24T22:06:54.712Z,11.10
2022-09-24T22:09:22.355Z,11.10
2022-09-24T22:11:51.541Z,11.10
2022-09-24T22:14:18.680Z,11.10
2022-09-24T22:16:45.688Z,11.10
2022-09-24T22:19:12.964Z,11.10
2022-09-24T22:21:40.536Z,11.10
2022-09-24T22:24:07.487Z,11.10
2022-09-24T22:26:34.586Z,11.10
2022-09-24T22:29:03.860Z,11.10
2022-09-24T22:31:33.261Z,11.10
2022-09-24T22:34:18.929Z,11.10
2022-09-24T22:36:47.180Z,11.10
2022-09-24T22:39:15.431Z,11.10
2022-09-24T22:41:43.302Z,11.10
2022-09-24T22:44:12.165Z,11.00
2022-09-24T22:46:40.353Z,11.00
2022-09-24T22:49:08.090Z,11.00
2022-09-24T22:51:36.103Z,11.00
2022-09-24T22:54:03.126Z,11.00
2022-09-24T22:56:30.516Z,11.00
2022-09-24T22:59:00.854Z,11.00
2022-09-24T23:01:45.962Z,11.00
2022-09-24T23:04:15.158Z,11.00
2022-09-24T23:06:43.589Z,11.00
2022-09-24T23:09:11.439Z,11.00
2022-09-24T23:11:38.842Z,11.00
2022-09-24T23:14:12.516Z,11.10
2022-09-24T23:16:40.514Z,11.10
2022-09-24T23:19:21.006Z,11.10
2022-09-24T23:21:48.009Z,11.00
2022-09-24T23:24:17.795Z,11.00
2022-09-24T23:26:45.769Z,11.00
2022-09-24T23:29:14.504Z,11.00
2022-09-24T23:31:41.645Z,11.00
2022-09-24T23:34:08.914Z,10.90
2022-09-24T23:36:36.274Z,10.90
2022-09-24T23:39:04.690Z,10.90
2022-09-24T23:41:31.861Z,10.90
2022-09-24T23:44:00.003Z,10.80
2022-09-24T23:46:27.506Z,10.80
2022-09-24T23:48:55.575Z,10.70
2022-09-24T23:51:23.466Z,10.70
2022-09-24T23:53:50.959Z,10.60
2022-09-24T23:56:19.011Z,10.40
2022-09-24T23:58:46.145Z,10.40
